createdAt,value
2022-11-22T00:00:42.006Z,4.99
2022-11-22T00:03:09.505Z,4.97
2022-11-22T00:05:37.299Z,4.99
2022-11-22T00:08:04.978Z,4.97
2022-11-22T00:10:32.145Z,4.96
2022-11-22T00:12:59.296Z,5.00
2022-11-22T00:15:26.551Z,4.96
2022-11-22T00:17:53.571Z,4.97
2022-11-22T00:20:21.135Z,4.99
2022-11-22T00:22:49.035Z,5.01
2022-11-22T00:25:16.085Z,5.01
2022-11-22T00:27:43.345Z,5.01
2022-11-22T00:30:10.811Z,5.02
2022-11-22T00:32:37.849Z,5.04
2022-11-22T00:35:05.572Z,5.04
2022-11-22T00:37:32.615Z,5.06
2022-11-22T00:39:59.769Z,5.04
2022-11-22T00:42:26.770Z,5.05
2022-11-22T00:44:53.796Z,5.05
2022-11-22T00:47:20.846Z,5.04
2022-11-22T00:49:48.276Z,5.05
2022-11-22T00:52:15.319Z,5.07
2022-11-22T00:54:42.452Z,5.02
2022-11-22T00:57:09.515Z,5.06
2022-11-22T00:59:36.542Z,5.07
2022-11-22T01:02:03.618Z,5.09
2022-11-22T01:04:30.651Z,5.10
2022-11-22T01:06:57.719Z,5.06
2022-11-22T01:09:24.986Z,5.13
2022-11-22T01:11:52.507Z,5.15
2022-11-22T01:14:19.930Z,5.16
2022-11-22T01:16:47.553Z,5.16
2022-11-22T01:19:14.569Z,5.17
2022-11-22T01:21:41.661Z,5.18
2022-11-22T01:24:08.901Z,5.18
2022-11-22T01:26:35.973Z,5.18
2022-11-22T01:29:03.111Z,5.19
2022-11-22T01:31:30.306Z,5.16
2022-11-22T01:33:58.999Z,5.12
2022-11-22T01:36:27.068Z,5.09
2022-11-22T01:38:54.459Z,5.10
2022-11-22T01:41:21.497Z,5.11
2022-11-22T01:43:49.007Z,5.06
2022-11-22T01:46:21.564Z,5.06
2022-11-22T01:48:54.843Z,5.04
2022-11-22T01:51:37.665Z,4.99
2022-11-22T01:54:09.599Z,4.98
2022-11-22T01:56:38.251Z,4.96
2022-11-22T01:59:10.664Z,4.89
2022-11-22T02:01:38.234Z,4.89
2022-11-22T02:04:09.428Z,4.85
2022-11-22T02:07:11.483Z,4.80
2022-11-22T02:09:40.799Z,4.72
2022-11-22T02:12:09.903Z,4.68
2022-11-22T02:14:38.929Z,4.70
2022-11-22T02:17:06.185Z,4.67
2022-11-22T02:19:45.497Z,4.62
2022-11-22T02:22:29.937Z,4.60
2022-11-22T02:25:03.288Z,4.57
2022-11-22T02:27:30.394Z,4.55
2022-11-22T02:29:57.443Z,4.53
2022-11-22T02:32:24.792Z,4.51
2022-11-22T02:34:52.068Z,4.51
2022-11-22T02:37:24.307Z,4.49
2022-11-22T02:40:05.272Z,4.43
2022-11-22T02:42:34.116Z,4.46
2022-11-22T02:45:01.139Z,4.48
2022-11-22T02:47:28.149Z,4.46
2022-11-22T02:49:55.148Z,4.44
2022-11-22T02:52:22.294Z,4.44
2022-11-22T02:54:49.355Z,4.42
2022-11-22T02:57:16.417Z,4.40
2022-11-22T02:59:43.585Z,4.39
2022-11-22T03:02:10.798Z,4.39
2022-11-22T03:04:37.827Z,4.40
2022-11-22T03:07:04.955Z,4.39
2022-11-22T03:09:32.645Z,4.38
2022-11-22T03:12:00.101Z,4.33
2022-11-22T03:14:27.213Z,4.34
2022-11-22T03:16:54.547Z,4.34
2022-11-22T03:19:21.753Z,4.31
2022-11-22T03:21:49.199Z,4.31
2022-11-22T03:24:16.712Z,4.29
2022-11-22T03:26:48.755Z,4.27
2022-11-22T03:29:17.198Z,4.28
2022-11-22T03:31:44.203Z,4.25
2022-11-22T03:34:12.281Z,4.25
2022-11-22T03:36:39.249Z,4.24
2022-11-22T03:39:06.271Z,4.23
2022-11-22T03:41:33.236Z,4.23
2022-11-22T03:44:00.285Z,4.21
2022-11-22T03:46:27.323Z,4.20
2022-11-22T03:48:54.592Z,4.17
2022-11-22T03:51:21.708Z,4.17
2022-11-22T03:53:48.708Z,4.12
2022-11-22T03:56:15.676Z,4.09
2022-11-22T03:58:42.721Z,4.08
2022-11-22T04:01:14.979Z,4.05
2022-11-22T04:03:43.376Z,4.03
2022-11-22T04:06:10.265Z,4.00
2022-11-22T04:08:37.362Z,3.99
2022-11-22T04:11:04.476Z,3.96
2022-11-22T04:14:00.962Z,3.94
2022-11-22T04:16:28.098Z,3.88
2022-11-22T04:18:55.103Z,3.88
2022-11-22T04:21:34.008Z,3.82
2022-11-22T04:24:25.417Z,3.81
2022-11-22T04:26:53.054Z,3.70
2022-11-22T04:29:21.143Z,3.72
2022-11-22T04:32:08.507Z,3.66
2022-11-22T04:34:36.331Z,3.61
2022-11-22T04:37:04.873Z,3.66
2022-11-22T04:39:32.390Z,3.63
2022-11-22T04:42:18.668Z,3.59
2022-11-22T04:44:46.308Z,3.61
2022-11-22T04:47:35.694Z,3.54
2022-11-22T04:50:24.842Z,3.56
2022-11-22T04:52:54.164Z,3.53
2022-11-22T04:55:21.945Z,3.51
2022-11-22T04:57:50.429Z,3.47
2022-11-22T05:00:19.259Z,3.47
2022-11-22T05:02:46.265Z,3.45
2022-11-22T05:05:13.414Z,3.41
2022-11-22T05:07:40.515Z,3.40
2022-11-22T05:10:08.170Z,3.32
2022-11-22T05:12:35.317Z,3.33
2022-11-22T05:15:02.403Z,3.30
2022-11-22T05:17:29.462Z,3.31
2022-11-22T05:19:56.483Z,3.27
2022-11-22T05:22:46.242Z,3.26
2022-11-22T05:25:13.293Z,3.28
2022-11-22T05:27:40.369Z,3.26
2022-11-22T05:30:08.021Z,3.25
2022-11-22T05:32:35.202Z,3.23
2022-11-22T05:35:02.375Z,3.24
2022-11-22T05:37:29.854Z,3.23
2022-11-22T05:39:56.887Z,3.19
2022-11-22T05:42:23.976Z,3.20
2022-11-22T05:44:51.000Z,3.21
2022-11-22T05:47:17.960Z,3.17
2022-11-22T05:49:46.061Z,3.17
2022-11-22T05:52:13.190Z,3.15
2022-11-22T05:54:40.221Z,3.12
2022-11-22T05:57:07.386Z,3.11
2022-11-22T05:59:34.458Z,3.09
2022-11-22T06:02:01.499Z,3.08
2022-11-22T06:04:28.586Z,3.09
2022-11-22T06:06:55.690Z,3.08
2022-11-22T06:09:22.955Z,3.09
2022-11-22T06:11:49.913Z,3.08
2022-11-22T06:14:16.982Z,3.15
2022-11-22T06:16:44.138Z,3.18
2022-11-22T06:19:11.353Z,3.22
2022-11-22T06:21:38.787Z,3.25
2022-11-22T06:24:06.311Z,3.37
2022-11-22T06:26:39.125Z,3.38
2022-11-22T06:29:06.833Z,3.49
2022-11-22T06:31:33.923Z,3.52
2022-11-22T06:34:01.164Z,3.62
2022-11-22T06:36:31.149Z,3.71
2022-11-22T06:38:58.308Z,3.72
2022-11-22T06:41:32.600Z,3.76
2022-11-22T06:43:59.631Z,3.78
2022-11-22T06:46:27.317Z,3.82
2022-11-22T06:48:54.445Z,3.79
2022-11-22T06:51:29.749Z,3.79
2022-11-22T06:53:57.776Z,3.78
2022-11-22T06:56:28.333Z,3.79
2022-11-22T06:58:55.624Z,3.80
2022-11-22T07:01:25.539Z,3.77
2022-11-22T07:03:58.353Z,3.80
2022-11-22T07:06:28.393Z,3.86
2022-11-22T07:08:55.576Z,3.86
2022-11-22T07:11:25.426Z,3.86
2022-11-22T07:13:54.125Z,3.87
2022-11-22T07:16:21.811Z,3.88
2022-11-22T07:18:49.428Z,3.89
2022-11-22T07:21:20.223Z,3.95
2022-11-22T07:23:49.103Z,3.98
2022-11-22T07:26:17.784Z,3.95
2022-11-22T07:28:45.682Z,3.94
2022-11-22T07:31:14.463Z,4.00
2022-11-22T07:33:42.274Z,4.01
2022-11-22T07:36:11.633Z,4.00
2022-11-22T07:38:38.855Z,4.06
2022-11-22T07:41:06.770Z,4.07
2022-11-22T07:43:34.262Z,4.16
2022-11-22T07:46:02.960Z,4.15
2022-11-22T07:48:29.997Z,4.10
2022-11-22T07:50:57.168Z,4.14
2022-11-22T07:53:24.250Z,4.14
2022-11-22T07:55:51.274Z,4.16
2022-11-22T07:58:18.342Z,4.18
2022-11-22T08:00:45.340Z,4.20
2022-11-22T08:03:17.221Z,4.19
2022-11-22T08:05:46.348Z,4.19
2022-11-22T08:08:13.463Z,4.20
2022-11-22T08:10:40.443Z,4.14
2022-11-22T08:13:07.520Z,4.19
2022-11-22T08:15:34.739Z,4.17
2022-11-22T08:18:01.808Z,4.15
2022-11-22T08:20:28.857Z,4.23
2022-11-22T08:22:56.077Z,4.23
2022-11-22T08:25:23.121Z,4.26
2022-11-22T08:27:50.078Z,4.23
2022-11-22T08:30:17.085Z,4.21
2022-11-22T08:32:44.167Z,4.17
2022-11-22T08:35:11.208Z,4.28
2022-11-22T08:37:38.344Z,4.26
2022-11-22T08:40:06.272Z,4.23
2022-11-22T08:42:33.265Z,4.25
2022-11-22T08:45:00.318Z,4.29
2022-11-22T08:47:27.444Z,4.27
2022-11-22T08:49:54.462Z,4.31
2022-11-22T08:52:21.465Z,4.34
2022-11-22T08:54:48.514Z,4.34
2022-11-22T08:57:15.661Z,4.39
2022-11-22T08:59:42.801Z,4.42
2022-11-22T09:02:10.721Z,4.44
2022-11-22T09:04:37.829Z,4.51
2022-11-22T09:09:51.965Z,4.52
2022-11-22T09:12:19.341Z,4.54
2022-11-22T09:14:46.483Z,4.55
2022-11-22T09:17:17.764Z,4.55
2022-11-22T09:19:45.357Z,4.54
2022-11-22T09:22:12.427Z,4.57
2022-11-22T09:24:39.476Z,4.57
2022-11-22T09:27:06.644Z,4.63
2022-11-22T09:29:34.383Z,4.70
2022-11-22T09:32:01.506Z,4.69
2022-11-22T09:34:28.535Z,4.70
2022-11-22T09:36:56.048Z,4.72
2022-11-22T09:39:23.147Z,4.74
2022-11-22T09:42:12.797Z,4.76
2022-11-22T09:44:58.288Z,4.78
2022-11-22T09:47:48.133Z,4.71
2022-11-22T09:50:30.329Z,4.71
2022-11-22T09:53:04.674Z,4.68
2022-11-22T09:55:45.696Z,4.71
2022-11-22T09:58:30.929Z,4.70
2022-11-22T10:01:19.597Z,4.73
2022-11-22T10:04:01.406Z,4.72
2022-11-22T10:06:38.532Z,4.79
2022-11-22T10:09:27.852Z,4.80
2022-11-22T10:12:00.307Z,4.83
2022-11-22T10:14:36.571Z,4.85
2022-11-22T10:17:15.799Z,4.88
2022-11-22T10:19:56.360Z,4.87
2022-11-22T10:22:25.101Z,4.96
2022-11-22T10:24:52.155Z,4.92
2022-11-22T10:27:19.225Z,4.88
2022-11-22T10:30:02.832Z,4.97
2022-11-22T10:32:48.116Z,4.94
2022-11-22T10:35:30.148Z,4.97
2022-11-22T10:38:32.249Z,4.97
2022-11-22T10:41:18.030Z,4.98
2022-11-22T10:43:51.101Z,5.06
2022-11-22T10:46:40.660Z,5.07
2022-11-22T10:49:16.372Z,5.09
2022-11-22T10:52:21.712Z,5.08
2022-11-22T10:55:19.530Z,5.14
2022-11-22T10:58:01.883Z,5.14
2022-11-22T11:00:33.079Z,5.14
2022-11-22T11:03:11.857Z,5.16
2022-11-22T11:06:22.334Z,5.22
2022-11-22T11:09:36.100Z,5.28
2022-11-22T11:11:34.625Z,5.39
2022-11-22T11:14:28.047Z,5.50
2022-11-22T11:16:55.799Z,5.57
2022-11-22T11:19:30.075Z,5.62
2022-11-22T11:22:08.140Z,5.62
2022-11-22T11:24:39.913Z,5.67
2022-11-22T11:27:09.273Z,5.78
2022-11-22T11:29:47.964Z,5.83
2022-11-22T11:32:17.942Z,5.84
2022-11-22T11:35:01.383Z,5.87
2022-11-22T11:37:37.339Z,5.84
2022-11-22T11:40:05.765Z,5.84
2022-11-22T11:42:34.679Z,5.84
2022-11-22T11:45:27.257Z,5.87
2022-11-22T11:47:54.511Z,5.89
2022-11-22T11:50:24.948Z,5.81
2022-11-22T11:53:02.213Z,5.83
2022-11-22T11:55:37.150Z,5.87
2022-11-22T11:58:18.015Z,5.86
2022-11-22T12:00:45.594Z,5.83
2022-11-22T12:03:17.045Z,5.80
2022-11-22T12:05:44.289Z,5.86
2022-11-22T12:08:32.119Z,5.85
2022-11-22T12:11:14.451Z,5.91
2022-11-22T12:14:20.807Z,5.95
2022-11-22T12:16:46.505Z,5.95
2022-11-22T12:19:41.099Z,5.94
2022-11-22T12:22:42.694Z,6.00
2022-11-22T12:25:36.380Z,6.02
2022-11-22T12:28:18.425Z,6.05
2022-11-22T12:30:52.433Z,6.01
2022-11-22T12:33:24.669Z,5.95
2022-11-22T12:35:54.499Z,6.01
2022-11-22T12:38:27.855Z,5.98
2022-11-22T12:40:58.309Z,5.97
2022-11-22T12:43:44.740Z,6.00
2022-11-22T12:46:26.004Z,6.01
2022-11-22T12:48:58.671Z,5.95
2022-11-22T12:51:56.246Z,5.95
2022-11-22T12:54:37.112Z,5.90
2022-11-22T12:57:54.016Z,5.96
2022-11-22T13:00:27.231Z,5.95
2022-11-22T13:03:07.432Z,5.89
2022-11-22T13:05:40.765Z,5.95
2022-11-22T13:08:19.171Z,5.98
2022-11-22T13:10:55.077Z,6.05
2022-11-22T13:13:29.468Z,6.09
2022-11-22T13:16:00.174Z,6.12
2022-11-22T13:18:33.037Z,6.16
2022-11-22T13:21:19.751Z,6.17
2022-11-22T13:24:08.621Z,6.24
2022-11-22T13:26:48.652Z,6.20
2022-11-22T13:29:27.836Z,6.34
2022-11-22T13:32:13.584Z,6.44
2022-11-22T13:35:00.103Z,6.46
2022-11-22T13:37:30.281Z,6.42
2022-11-22T13:40:10.090Z,6.49
2022-11-22T13:42:37.391Z,6.44
2022-11-22T13:45:24.646Z,6.50
2022-11-22T13:47:52.272Z,6.48
2022-11-22T13:50:58.228Z,6.43
2022-11-22T13:53:33.805Z,6.41
2022-11-22T13:56:15.941Z,6.44
2022-11-22T13:59:02.593Z,6.49
2022-11-22T14:01:35.795Z,6.47
2022-11-22T14:04:24.700Z,6.38
2022-11-22T14:07:09.854Z,6.42
2022-11-22T14:09:51.047Z,6.39
2022-11-22T14:12:41.504Z,6.44
2022-11-22T14:15:17.281Z,6.46
2022-11-22T14:17:55.184Z,6.42
2022-11-22T14:21:26.510Z,6.37
2022-11-22T14:24:08.908Z,6.48
2022-11-22T14:26:41.703Z,6.47
2022-11-22T14:29:31.044Z,6.46
2022-11-22T14:32:03.887Z,6.45
2022-11-22T14:34:31.693Z,6.44
2022-11-22T14:37:10.855Z,6.41
2022-11-22T14:39:51.774Z,6.35
2022-11-22T14:42:49.042Z,6.35
2022-11-22T14:45:22.984Z,6.41
2022-11-22T14:48:01.433Z,6.41
2022-11-22T14:50:33.810Z,6.32
2022-11-22T14:53:28.112Z,6.30
2022-11-22T14:56:13.847Z,6.32
2022-11-22T14:58:56.774Z,6.32
2022-11-22T15:01:52.379Z,6.28
2022-11-22T15:09:12.945Z,6.27
2022-11-22T15:09:23.877Z,6.26
2022-11-22T15:10:59.928Z,6.25
2022-11-22T15:14:02.696Z,6.24
2022-11-22T15:57:19.400Z,6.06
2022-11-22T15:59:54.571Z,6.07
2022-11-22T16:02:25.301Z,6.08
2022-11-22T16:06:09.914Z,6.11
2022-11-22T16:07:55.380Z,6.08
2022-11-22T16:10:24.142Z,6.08
2022-11-22T16:12:52.489Z,6.08
2022-11-22T16:15:36.049Z,6.04
2022-11-22T16:18:24.526Z,6.02
2022-11-22T16:21:19.448Z,6.00
2022-11-22T16:23:47.012Z,6.02
2022-11-22T16:26:29.521Z,6.07
2022-11-22T16:29:26.102Z,6.04
2022-11-22T16:32:01.412Z,5.96
2022-11-22T16:34:28.523Z,6.04
2022-11-22T16:36:56.091Z,6.07
2022-11-22T16:39:24.191Z,6.04
2022-11-22T16:41:51.293Z,6.02
2022-11-22T16:44:19.757Z,5.98
2022-11-22T16:46:49.817Z,5.97
2022-11-22T16:49:19.631Z,5.97
2022-11-22T16:51:48.866Z,5.98
2022-11-22T16:54:24.146Z,5.96
2022-11-22T16:56:51.162Z,5.95
2022-11-22T16:59:18.229Z,5.91
2022-11-22T17:01:45.299Z,5.93
2022-11-22T17:04:21.918Z,5.88
2022-11-22T17:06:49.997Z,5.92
2022-11-22T17:09:17.158Z,5.87
2022-11-22T17:11:44.951Z,5.88
2022-11-22T17:14:16.626Z,5.91
2022-11-22T17:16:45.813Z,5.89
2022-11-22T17:22:00.973Z,5.89
2022-11-22T17:24:29.095Z,5.89
2022-11-22T17:26:57.102Z,5.93
2022-11-22T17:32:13.161Z,5.85
2022-11-22T17:34:40.393Z,5.86
2022-11-22T17:37:12.216Z,5.83
2022-11-22T17:39:39.717Z,5.84
2022-11-22T17:42:06.767Z,5.85
2022-11-22T17:44:34.241Z,5.86
2022-11-22T17:47:01.275Z,5.95
2022-11-22T17:49:29.020Z,5.93
2022-11-22T17:51:56.341Z,6.05
2022-11-22T17:54:23.427Z,6.05
2022-11-22T17:56:50.593Z,6.10
2022-11-22T17:59:19.509Z,6.02
2022-11-22T18:01:46.582Z,6.01
2022-11-22T18:04:14.635Z,6.04
2022-11-22T18:06:41.765Z,6.04
2022-11-22T18:09:09.072Z,5.99
2022-11-22T18:11:36.084Z,6.04
2022-11-22T18:14:03.186Z,6.08
2022-11-22T18:16:31.424Z,6.13
2022-11-22T18:19:00.416Z,6.15
2022-11-22T18:21:29.515Z,6.12
2022-11-22T18:24:00.325Z,6.01
2022-11-22T18:26:43.391Z,6.00
2022-11-22T18:32:00.773Z,5.96
2022-11-22T18:34:28.652Z,5.90
2022-11-22T18:37:00.796Z,5.79
2022-11-22T18:39:34.721Z,5.77
2022-11-22T18:42:02.891Z,5.76
2022-11-22T18:44:29.920Z,5.75
2022-11-22T18:46:57.470Z,5.69
2022-11-22T18:49:24.542Z,5.69
2022-11-22T18:51:51.930Z,5.69
2022-11-22T18:54:20.120Z,5.69
2022-11-22T18:56:47.215Z,5.61
2022-11-22T18:59:14.439Z,5.58
2022-11-22T19:01:41.663Z,5.62
2022-11-22T19:04:12.984Z,5.62
2022-11-22T19:06:40.748Z,5.62
2022-11-22T19:09:08.669Z,5.63
2022-11-22T19:11:35.905Z,5.65
2022-11-22T19:14:07.258Z,5.65
2022-11-22T19:16:34.704Z,5.61
2022-11-22T19:19:01.773Z,5.61
2022-11-22T19:21:29.842Z,5.67
2022-11-22T19:23:57.714Z,5.68
2022-11-22T19:26:27.584Z,5.74
2022-11-22T19:28:58.064Z,5.77
2022-11-22T19:31:28.794Z,5.81
2022-11-22T19:33:56.365Z,5.86
2022-11-22T19:36:32.199Z,5.87
2022-11-22T19:39:02.087Z,5.95
2022-11-22T19:41:29.303Z,5.98
2022-11-22T19:43:59.974Z,6.04
2022-11-22T19:46:27.795Z,6.10
2022-11-22T19:48:57.485Z,6.09
2022-11-22T19:51:26.380Z,6.16
2022-11-22T19:53:57.284Z,6.18
2022-11-22T19:56:27.319Z,6.16
2022-11-22T19:58:54.838Z,6.24
2022-11-22T20:01:23.727Z,6.27
2022-11-22T20:03:55.814Z,6.25
2022-11-22T20:06:24.207Z,6.18
2022-11-22T20:08:51.299Z,6.17
2022-11-22T20:11:20.565Z,6.14
2022-11-22T20:13:51.451Z,6.15
2022-11-22T20:16:22.303Z,6.13
2022-11-22T20:18:57.492Z,6.12
2022-11-22T20:21:27.130Z,6.14
2022-11-22T20:23:55.254Z,6.13
2022-11-22T20:26:23.239Z,6.11
2022-11-22T20:28:58.874Z,6.11
2022-11-22T20:31:27.994Z,6.13
2022-11-22T20:33:55.363Z,6.13
2022-11-22T20:36:29.012Z,6.15
2022-11-22T20:38:57.555Z,6.14
2022-11-22T20:41:27.566Z,6.17
2022-11-22T20:43:55.448Z,6.17
2022-11-22T20:46:25.033Z,6.20
2022-11-22T20:48:53.493Z,6.19
2022-11-22T20:51:26.284Z,6.18
2022-11-22T20:53:54.455Z,6.18
2022-11-22T20:56:21.796Z,6.23
2022-11-22T20:58:49.688Z,6.22
2022-11-22T21:01:25.262Z,6.24
2022-11-22T21:03:53.422Z,6.24
2022-11-22T21:06:22.136Z,6.27
2022-11-22T21:08:49.815Z,6.29
2022-11-22T21:11:18.547Z,6.31
2022-11-22T21:13:47.171Z,6.32
2022-11-22T21:16:23.255Z,6.33
2022-11-22T21:19:01.599Z,6.34
2022-11-22T21:21:29.965Z,6.37
2022-11-22T21:23:59.973Z,6.38
2022-11-22T21:26:27.492Z,6.38
2022-11-22T21:28:54.967Z,6.39
2022-11-22T21:31:22.807Z,6.40
2022-11-22T21:33:50.239Z,6.41
2022-11-22T21:36:18.165Z,6.39
2022-11-22T21:38:45.457Z,6.39
2022-11-22T21:44:02.013Z,6.42
2022-11-22T21:46:29.137Z,6.39
2022-11-22T21:48:56.548Z,6.42
2022-11-22T21:51:26.065Z,6.45
2022-11-22T21:54:01.120Z,6.45
2022-11-22T21:56:28.827Z,6.47
2022-11-22T21:58:56.581Z,6.42
2022-11-22T22:01:24.510Z,6.46
2022-11-22T22:03:51.821Z,6.47
2022-11-22T22:06:20.002Z,6.48
2022-11-22T22:08:47.094Z,6.49
2022-11-22T22:11:14.367Z,6.47
2022-11-22T22:13:41.448Z,6.47
2022-11-22T22:16:15.250Z,6.51
2022-11-22T22:18:43.379Z,6.53
2022-11-22T22:21:12.154Z,6.45
2022-11-22T22:23:40.497Z,6.51
2022-11-22T22:26:09.880Z,6.53
2022-11-22T22:28:38.357Z,6.52
2022-11-22T22:31:21.330Z,6.51
2022-11-22T22:33:56.262Z,6.50
2022-11-22T22:36:27.329Z,6.54
2022-11-22T22:38:55.045Z,6.53
2022-11-22T22:41:22.493Z,6.52
2022-11-22T22:43:49.952Z,6.54
2022-11-22T22:46:22.563Z,6.53
2022-11-22T22:48:52.167Z,6.51
2022-11-22T22:51:21.686Z,6.56
2022-11-22T22:53:49.499Z,6.56
2022-11-22T22:56:20.232Z,6.56
2022-11-22T22:58:47.967Z,6.55
2022-11-22T23:01:20.386Z,6.56
2022-11-22T23:03:53.245Z,6.56
2022-11-22T23:06:22.150Z,6.56
2022-11-22T23:08:50.747Z,6.58
2022-11-22T23:11:23.217Z,6.58
2022-11-22T23:13:50.223Z,6.60
2022-11-22T23:16:17.324Z,6.60
2022-11-22T23:18:45.329Z,6.61
2022-11-22T23:21:14.203Z,6.63
2022-11-22T23:23:41.224Z,6.65
2022-11-22T23:26:11.496Z,6.68
2022-11-22T23:28:38.829Z,6.67
2022-11-22T23:31:08.249Z,6.68
2022-11-22T23:33:36.376Z,6.62
2022-11-22T23:36:05.659Z,6.67
2022-11-22T23:38:32.926Z,6.69
2022-11-22T23:41:00.467Z,6.74
2022-11-22T23:43:27.902Z,6.74
2022-11-22T23:45:55.146Z,6.71
2022-11-22T23:48:22.129Z,6.68
2022-11-22T23:50:49.505Z,6.76
2022-11-22T23:53:16.566Z,6.78
2022-11-22T23:55:43.686Z,6.76
2022-11-22T23:58:10.785Z,6.80
